createdAt,value
2023-03-05T00:01:22.890Z,102788.88
2023-03-05T00:03:52.409Z,102791.03
2023-03-05T00:06:20.594Z,102803.13
2023-03-05T00:08:48.816Z,102791.81
2023-03-05T00:11:19.273Z,102792.56
2023-03-05T00:13:47.707Z,102787.44
2023-03-05T00:16:16.614Z,102785.66
2023-03-05T00:18:44.928Z,102780.06
2023-03-05T00:21:19.646Z,102787.94
2023-03-05T00:23:47.587Z,102783.56
2023-03-05T00:26:15.557Z,102778.28
2023-03-05T00:28:47.440Z,102773.94
2023-03-05T00:31:15.494Z,102776.69
2023-03-05T00:33:43.704Z,102763.34
2023-03-05T00:36:12.600Z,102743.78
2023-03-05T00:38:40.947Z,102750.97
2023-03-05T00:41:08.916Z,102757.91
2023-03-05T00:43:37.274Z,102754.25
2023-03-05T00:46:06.756Z,102758.69
2023-03-05T00:48:34.797Z,102755.09
2023-03-05T00:51:03.136Z,102744.69
2023-03-05T00:53:31.105Z,102752.56
2023-03-05T00:55:59.476Z,102748.13
2023-03-05T00:58:27.453Z,102715.50
2023-03-05T01:00:58.948Z,102717.97
2023-03-05T01:03:28.442Z,102723.09
2023-03-05T01:05:56.654Z,102719.50
2023-03-05T01:08:24.654Z,102721.81
2023-03-05T01:10:52.611Z,102727.03
2023-03-05T01:13:20.761Z,102725.41
2023-03-05T01:15:50.999Z,102721.97
2023-03-05T01:18:19.264Z,102716.88
2023-03-05T01:20:49.071Z,102715.25
2023-03-05T01:23:17.442Z,102711.16
2023-03-05T01:25:45.382Z,102720.09
2023-03-05T01:28:13.358Z,102713.94
2023-03-05T01:30:41.436Z,102710.53
2023-03-05T01:33:09.386Z,102705.75
2023-03-05T01:35:39.827Z,102699.59
2023-03-05T01:38:09.378Z,102697.03
2023-03-05T01:40:37.350Z,102689.03
2023-03-05T01:43:17.649Z,102688.03
2023-03-05T01:46:19.125Z,102671.31
2023-03-05T01:48:48.911Z,102673.69
2023-03-05T01:51:17.103Z,102659.09
2023-03-05T01:53:46.489Z,102661.41
2023-03-05T01:56:14.938Z,102671.63
2023-03-05T01:58:42.911Z,102676.41
2023-03-05T02:01:11.063Z,102665.16
2023-03-05T02:03:39.128Z,102644.25
2023-03-05T02:06:07.216Z,102665.66
2023-03-05T02:08:35.156Z,102658.50
2023-03-05T02:11:04.744Z,102650.91
2023-03-05T02:13:34.045Z,102642.19
2023-03-05T02:16:02.696Z,102631.63
2023-03-05T02:18:30.737Z,102648.59
2023-03-05T02:21:03.951Z,102647.59
2023-03-05T02:23:33.794Z,102631.75
2023-03-05T02:26:01.843Z,102642.66
2023-03-05T02:28:32.776Z,102629.06
2023-03-05T02:31:00.787Z,102615.25
2023-03-05T02:33:28.704Z,102630.84
2023-03-05T02:35:56.741Z,102617.19
2023-03-05T02:38:26.210Z,102609.59
2023-03-05T02:40:54.401Z,102612.63
2023-03-05T02:43:22.648Z,102595.31
2023-03-05T02:45:50.755Z,102592.09
2023-03-05T02:48:18.664Z,102605.50
2023-03-05T02:50:47.307Z,102599.38
2023-03-05T02:53:16.698Z,102592.09
2023-03-05T02:55:48.900Z,102589.88
2023-03-05T02:58:17.319Z,102591.41
2023-03-05T03:00:46.714Z,102598.41
2023-03-05T03:03:14.975Z,102587.78
2023-03-05T03:05:42.950Z,102591.16
2023-03-05T03:08:11.476Z,102571.22
2023-03-05T03:10:39.402Z,102575.78
2023-03-05T03:13:08.760Z,102581.78
2023-03-05T03:15:38.023Z,102569.31
2023-03-05T03:18:06.363Z,102567.28
2023-03-05T03:20:34.986Z,102567.94
2023-03-05T03:23:03.000Z,102547.84
2023-03-05T03:25:31.234Z,102532.31
2023-03-05T03:27:59.274Z,102529.59
2023-03-05T03:30:28.575Z,102553.66
2023-03-05T03:32:56.525Z,102550.31
2023-03-05T03:35:24.655Z,102545.97
2023-03-05T03:37:52.655Z,102542.47
2023-03-05T03:40:20.740Z,102539.00
2023-03-05T03:45:34.798Z,102526.72
2023-03-05T03:48:02.772Z,102538.31
2023-03-05T03:50:30.730Z,102518.34
2023-03-05T03:52:58.686Z,102504.97
2023-03-05T03:55:27.970Z,102518.88
2023-03-05T03:57:55.886Z,102525.00
2023-03-05T04:00:24.070Z,102510.75
2023-03-05T04:02:53.451Z,102504.53
2023-03-05T04:05:21.404Z,102492.53
2023-03-05T04:07:49.430Z,102505.16
2023-03-05T04:10:17.687Z,102494.63
2023-03-05T04:12:46.253Z,102511.88
2023-03-05T04:15:15.038Z,102511.06
2023-03-05T04:17:43.106Z,102513.69
2023-03-05T04:20:13.606Z,102504.72
2023-03-05T04:22:41.716Z,102508.13
2023-03-05T04:25:10.833Z,102498.03
2023-03-05T04:27:40.318Z,102516.66
2023-03-05T04:30:10.655Z,102516.81
2023-03-05T04:32:38.731Z,102515.28
2023-03-05T04:35:09.371Z,102503.13
2023-03-05T04:37:38.743Z,102517.06
2023-03-05T04:40:07.875Z,102512.72
2023-03-05T04:42:35.835Z,102509.91
2023-03-05T04:45:03.855Z,102515.09
2023-03-05T04:47:31.909Z,102508.88
2023-03-05T04:49:59.870Z,102506.44
2023-03-05T04:52:27.922Z,102506.91
2023-03-05T04:54:57.244Z,102509.28
2023-03-05T04:57:25.326Z,102510.16
2023-03-05T04:59:53.252Z,102497.84
2023-03-05T05:02:21.217Z,102495.41
2023-03-05T05:04:49.150Z,102499.75
2023-03-05T05:07:17.104Z,102495.41
2023-03-05T05:09:45.107Z,102477.59
2023-03-05T05:12:14.499Z,102485.59
2023-03-05T05:14:42.431Z,102484.75
2023-03-05T05:17:10.357Z,102472.63
2023-03-05T05:19:38.539Z,102475.69
2023-03-05T05:22:06.620Z,102471.97
2023-03-05T05:24:36.228Z,102447.75
2023-03-05T05:27:04.258Z,102446.31
2023-03-05T05:29:33.696Z,102454.69
2023-03-05T05:32:01.680Z,102456.41
2023-03-05T05:34:29.766Z,102454.53
2023-03-05T05:36:57.766Z,102445.75
2023-03-05T05:39:25.731Z,102446.41
2023-03-05T05:41:53.845Z,102441.91
2023-03-05T05:44:21.724Z,102438.31
2023-03-05T05:46:51.099Z,102433.03
2023-03-05T05:49:19.290Z,102426.97
2023-03-05T05:51:47.301Z,102420.34
2023-03-05T05:54:15.452Z,102393.84
2023-03-05T05:56:43.392Z,102421.44
2023-03-05T05:59:11.526Z,102423.00
2023-03-05T06:01:39.469Z,102414.19
2023-03-05T06:04:08.888Z,102418.47
2023-03-05T06:06:36.740Z,102420.00
2023-03-05T06:09:04.876Z,102407.75
2023-03-05T06:11:34.080Z,102398.03
2023-03-05T06:14:02.950Z,102374.16
2023-03-05T06:16:31.012Z,102405.69
2023-03-05T06:18:59.001Z,102398.19
2023-03-05T06:21:28.334Z,102399.91
2023-03-05T06:23:56.312Z,102393.00
2023-03-05T06:26:24.267Z,102395.63
2023-03-05T06:28:52.683Z,102393.03
2023-03-05T06:31:22.425Z,102400.13
2023-03-05T06:33:50.587Z,102390.75
2023-03-05T06:36:19.552Z,102383.59
2023-03-05T06:38:49.132Z,102387.09
2023-03-05T06:41:18.310Z,102379.53
2023-03-05T06:43:47.172Z,102390.03
2023-03-05T06:46:16.275Z,102340.63
2023-03-05T06:48:44.348Z,102381.75
2023-03-05T06:51:16.079Z,102377.91
2023-03-05T06:53:44.310Z,102382.16
2023-03-05T06:56:14.042Z,102381.41
2023-03-05T06:58:42.229Z,102385.91
2023-03-05T07:01:10.369Z,102377.25
2023-03-05T07:03:38.387Z,102388.63
2023-03-05T07:06:07.043Z,102379.88
2023-03-05T07:08:34.977Z,102392.47
2023-03-05T07:11:03.346Z,102386.25
2023-03-05T07:13:32.603Z,102384.75
2023-03-05T07:16:00.550Z,102386.59
2023-03-05T07:18:28.562Z,102395.31
2023-03-05T07:20:56.531Z,102377.91
2023-03-05T07:23:24.520Z,102394.44
2023-03-05T07:25:54.494Z,102398.69
2023-03-05T07:28:22.484Z,102397.84
2023-03-05T07:30:58.029Z,102382.34
2023-03-05T07:33:26.405Z,102399.66
2023-03-05T07:35:54.392Z,102407.56
2023-03-05T07:38:22.541Z,102395.66
2023-03-05T07:40:51.784Z,102384.41
2023-03-05T07:43:19.798Z,102397.84
2023-03-05T07:45:47.855Z,102394.53
2023-03-05T07:48:20.816Z,102384.66
2023-03-05T07:50:48.858Z,102392.50
2023-03-05T07:53:19.224Z,102387.94
2023-03-05T07:55:47.513Z,102379.28
2023-03-05T07:58:15.551Z,102380.47
2023-03-05T08:00:43.581Z,102395.47
2023-03-05T08:03:11.483Z,102385.41
2023-03-05T08:05:41.599Z,102388.56
2023-03-05T08:08:09.842Z,102383.88
2023-03-05T08:10:38.994Z,102371.00
2023-03-05T08:13:07.107Z,102378.59
2023-03-05T08:15:35.377Z,102387.19
2023-03-05T08:18:03.401Z,102370.75
2023-03-05T08:20:31.325Z,102378.25
2023-03-05T08:23:01.148Z,102387.75
2023-03-05T08:25:29.425Z,102386.78
2023-03-05T08:27:58.610Z,102377.06
2023-03-05T08:30:27.622Z,102363.34
2023-03-05T08:32:55.753Z,102363.50
2023-03-05T08:35:24.066Z,102358.31
2023-03-05T08:37:52.023Z,102372.81
2023-03-05T08:40:21.540Z,102374.75
2023-03-05T08:42:51.922Z,102365.13
2023-03-05T08:45:19.928Z,102357.47
2023-03-05T08:47:47.840Z,102362.22
2023-03-05T08:50:18.089Z,102357.84
2023-03-05T08:52:46.188Z,102349.63
2023-03-05T08:55:14.111Z,102349.63
2023-03-05T08:57:43.527Z,102347.72
2023-03-05T09:00:12.824Z,102348.34
2023-03-05T09:02:40.856Z,102347.38
2023-03-05T09:05:09.771Z,102345.34
2023-03-05T09:07:38.445Z,102331.00
2023-03-05T09:10:07.112Z,102324.69
2023-03-05T09:12:35.057Z,102325.63
2023-03-05T09:15:04.818Z,102334.03
2023-03-05T09:17:32.917Z,102326.03
2023-03-05T09:20:01.021Z,102334.59
2023-03-05T09:22:29.779Z,102330.09
2023-03-05T09:24:57.821Z,102332.66
2023-03-05T09:27:25.945Z,102330.84
2023-03-05T09:29:54.148Z,102322.16
2023-03-05T09:32:23.467Z,102309.69
2023-03-05T09:34:51.432Z,102320.53
2023-03-05T09:37:19.777Z,102318.75
2023-03-05T09:39:47.802Z,102323.09
2023-03-05T09:42:45.236Z,102310.81
2023-03-05T09:45:18.385Z,102298.38
2023-03-05T09:47:52.622Z,102301.78
2023-03-05T09:50:32.869Z,102290.66
2023-03-05T09:53:03.697Z,102305.38
2023-03-05T09:55:34.534Z,102293.75
2023-03-05T09:58:05.460Z,102289.34
2023-03-05T10:00:35.898Z,102272.88
2023-03-05T10:03:07.855Z,102286.94
2023-03-05T10:05:47.006Z,102291.66
2023-03-05T10:08:14.995Z,102284.75
2023-03-05T10:10:44.707Z,102272.50
2023-03-05T10:13:15.166Z,102278.44
2023-03-05T10:15:50.438Z,102262.13
2023-03-05T10:18:23.713Z,102269.38
2023-03-05T10:20:59.266Z,102264.09
2023-03-05T10:23:30.944Z,102247.59
2023-03-05T10:26:13.636Z,102251.53
2023-03-05T10:28:44.931Z,102253.44
2023-03-05T10:31:21.280Z,102253.44
2023-03-05T10:33:56.484Z,102255.50
2023-03-05T10:36:35.120Z,102250.59
2023-03-05T10:39:23.959Z,102236.31
2023-03-05T10:41:57.130Z,102246.31
2023-03-05T10:44:27.782Z,102231.63
2023-03-05T10:46:56.592Z,102221.53
2023-03-05T10:49:30.405Z,102244.56
2023-03-05T10:51:59.813Z,102244.00
2023-03-05T10:54:30.173Z,102235.16
2023-03-05T10:57:05.847Z,102235.41
2023-03-05T10:59:34.068Z,102201.53
2023-03-05T11:02:06.273Z,102197.75
2023-03-05T11:04:37.278Z,102217.00
2023-03-05T11:07:09.828Z,102211.53
2023-03-05T11:09:37.857Z,102210.31
2023-03-05T11:12:11.917Z,102208.13
2023-03-05T11:14:40.864Z,102204.94
2023-03-05T11:17:27.579Z,102210.22
2023-03-05T11:19:57.060Z,102200.19
2023-03-05T11:22:26.113Z,102192.09
2023-03-05T11:25:15.142Z,102203.59
2023-03-05T11:27:49.942Z,102198.97
2023-03-05T11:30:23.093Z,102202.66
2023-03-05T11:32:51.083Z,102173.94
2023-03-05T11:35:31.371Z,102196.69
2023-03-05T11:38:02.495Z,102187.75
2023-03-05T11:40:31.564Z,102149.63
2023-03-05T11:43:00.906Z,102184.34
2023-03-05T11:45:29.067Z,102166.78
2023-03-05T11:47:58.576Z,102146.03
2023-03-05T11:50:29.439Z,102148.59
2023-03-05T11:52:59.221Z,102160.75
2023-03-05T11:55:28.511Z,102151.13
2023-03-05T11:58:02.378Z,102151.59
2023-03-05T12:00:32.185Z,102151.41
2023-03-05T12:03:01.405Z,102127.44
2023-03-05T12:05:30.820Z,102136.31
2023-03-05T12:07:59.856Z,102142.06
2023-03-05T12:10:27.882Z,102136.59
2023-03-05T12:12:59.281Z,102121.78
2023-03-05T12:15:34.972Z,102131.09
2023-03-05T12:18:08.652Z,102131.28
2023-03-05T12:20:41.039Z,102128.13
2023-03-05T12:23:13.541Z,102119.81
2023-03-05T12:25:47.302Z,102117.63
2023-03-05T12:28:16.279Z,102117.63
2023-03-05T12:30:58.345Z,102098.56
2023-03-05T12:33:44.080Z,102102.16
2023-03-05T12:36:35.053Z,102102.34
2023-03-05T12:39:03.780Z,102099.16
2023-03-05T12:41:39.561Z,102106.31
2023-03-05T12:44:11.906Z,102091.63
2023-03-05T12:46:40.370Z,102089.91
2023-03-05T12:49:29.301Z,102088.75
2023-03-05T12:51:59.708Z,102078.00
2023-03-05T12:54:34.992Z,102076.28
2023-03-05T12:57:04.404Z,102075.44
2023-03-05T12:59:40.357Z,102066.31
2023-03-05T13:02:18.243Z,102062.00
2023-03-05T13:04:46.186Z,102068.22
2023-03-05T13:07:17.217Z,102063.97
2023-03-05T13:09:52.914Z,102064.16
2023-03-05T13:12:20.927Z,102059.72
2023-03-05T13:14:49.062Z,102050.94
2023-03-05T13:17:44.476Z,102054.44
2023-03-05T13:20:31.699Z,102050.66
2023-03-05T13:23:18.217Z,102045.91
2023-03-05T13:25:46.617Z,102033.34
2023-03-05T13:28:15.470Z,102035.69
2023-03-05T13:30:46.157Z,102029.88
2023-03-05T13:33:18.728Z,102021.72
2023-03-05T13:35:46.823Z,102022.81
2023-03-05T13:38:23.404Z,102020.53
2023-03-05T13:41:06.093Z,102009.44
2023-03-05T13:43:34.106Z,102011.00
2023-03-05T13:46:02.172Z,102011.84
2023-03-05T13:48:30.189Z,102004.75
2023-03-05T13:50:58.660Z,101994.19
2023-03-05T13:53:28.687Z,101994.75
2023-03-05T13:55:58.478Z,101994.53
2023-03-05T13:58:47.509Z,101993.66
2023-03-05T14:01:19.493Z,101987.53
2023-03-05T14:03:50.549Z,101974.63
2023-03-05T14:06:19.686Z,101968.69
2023-03-05T14:08:52.331Z,101958.94
2023-03-05T14:11:20.586Z,101957.16
2023-03-05T14:13:48.587Z,101948.59
2023-03-05T14:16:24.771Z,101925.31
2023-03-05T14:18:56.059Z,101942.03
2023-03-05T14:21:24.050Z,101941.41
2023-03-05T14:23:55.400Z,101923.00
2023-03-05T14:26:29.527Z,101916.22
2023-03-05T14:28:58.948Z,101916.94
2023-03-05T14:31:26.911Z,101926.16
2023-03-05T14:33:54.846Z,101926.47
2023-03-05T14:36:24.569Z,101900.00
2023-03-05T14:38:54.076Z,101914.50
2023-03-05T14:41:23.780Z,101906.25
2023-03-05T14:43:51.733Z,101893.53
2023-03-05T14:46:19.868Z,101898.81
2023-03-05T14:48:48.041Z,101903.66
2023-03-05T14:51:18.856Z,101892.13
2023-03-05T14:53:47.816Z,101885.56
2023-03-05T14:56:20.136Z,101882.28
2023-03-05T14:58:48.108Z,101874.94
2023-03-05T15:01:16.240Z,101875.78
2023-03-05T15:03:44.188Z,101863.00
2023-03-05T15:06:18.514Z,101867.84
2023-03-05T15:08:46.510Z,101855.59
2023-03-05T15:11:14.403Z,101860.63
2023-03-05T15:13:43.887Z,101857.50
2023-03-05T15:16:13.458Z,101841.81
2023-03-05T15:18:41.524Z,101850.31
2023-03-05T15:21:09.413Z,101852.31
2023-03-05T15:23:38.520Z,101835.78
2023-03-05T15:26:07.386Z,101826.50
2023-03-05T15:28:36.073Z,101810.97
2023-03-05T15:31:05.597Z,101817.50
2023-03-05T15:33:33.683Z,101815.00
2023-03-05T15:36:01.656Z,101812.34
2023-03-05T15:38:29.800Z,101814.16
2023-03-05T15:40:58.967Z,101809.06
2023-03-05T15:43:28.830Z,101809.06
2023-03-05T15:45:56.922Z,101800.38
2023-03-05T15:48:26.254Z,101796.19
2023-03-05T15:50:54.259Z,101802.53
2023-03-05T15:53:23.270Z,101787.28
2023-03-05T15:55:51.148Z,101791.88
2023-03-05T15:58:19.132Z,101788.69
2023-03-05T16:00:47.483Z,101778.00
2023-03-05T16:03:15.734Z,101782.44
2023-03-05T16:05:45.081Z,101779.72
2023-03-05T16:08:13.053Z,101764.91
2023-03-05T16:10:41.018Z,101756.88
2023-03-05T16:13:10.671Z,101755.19
2023-03-05T16:15:39.140Z,101761.53
2023-03-05T16:18:07.941Z,101758.56
2023-03-05T16:20:36.662Z,101756.53
2023-03-05T16:23:06.266Z,101765.13
2023-03-05T16:25:34.313Z,101752.84
2023-03-05T16:28:02.243Z,101758.13
2023-03-05T16:30:30.260Z,101750.09
2023-03-05T16:32:58.215Z,101753.34
2023-03-05T16:35:26.295Z,101747.75
2023-03-05T16:37:54.212Z,101735.28
2023-03-05T16:40:23.792Z,101740.97
2023-03-05T16:42:51.730Z,101729.53
2023-03-05T16:45:19.768Z,101739.28
2023-03-05T16:47:47.803Z,101740.75
2023-03-05T16:50:15.750Z,101734.81
2023-03-05T16:52:44.220Z,101725.94
2023-03-05T16:55:12.215Z,101732.72
2023-03-05T16:57:41.600Z,101728.03
2023-03-05T17:00:11.893Z,101736.38
2023-03-05T17:02:39.897Z,101727.47
2023-03-05T17:05:08.199Z,101732.78
2023-03-05T17:07:36.189Z,101716.38
2023-03-05T17:10:04.198Z,101727.59
2023-03-05T17:12:32.093Z,101728.22
2023-03-05T17:15:01.464Z,101726.28
2023-03-05T17:17:29.659Z,101714.03
2023-03-05T17:19:57.606Z,101714.88
2023-03-05T17:22:25.642Z,101715.69
2023-03-05T17:24:53.851Z,101719.31
2023-03-05T17:27:22.742Z,101705.34
2023-03-05T17:29:50.759Z,101699.81
2023-03-05T17:32:20.131Z,101706.94
2023-03-05T17:34:48.157Z,101703.44
2023-03-05T17:37:16.260Z,101689.22
2023-03-05T17:39:44.485Z,101696.47
2023-03-05T17:42:12.809Z,101690.94
2023-03-05T17:44:40.732Z,101690.09
2023-03-05T17:47:08.854Z,101690.22
2023-03-05T17:49:38.146Z,101688.41
2023-03-05T17:52:06.751Z,101689.47
2023-03-05T17:54:34.748Z,101691.38
2023-03-05T17:57:02.690Z,101680.31
2023-03-05T17:59:30.759Z,101681.16
2023-03-05T18:01:58.680Z,101678.50
2023-03-05T18:04:26.771Z,101670.66
2023-03-05T18:06:57.808Z,101670.03
2023-03-05T18:09:25.747Z,101662.22
2023-03-05T18:11:53.805Z,101667.28
2023-03-05T18:14:21.787Z,101663.69
2023-03-05T18:16:50.246Z,101662.00
2023-03-05T18:19:18.693Z,101653.09
2023-03-05T18:21:46.764Z,101659.44
2023-03-05T18:24:16.060Z,101658.38
2023-03-05T18:26:43.964Z,101656.59
2023-03-05T18:29:11.992Z,101660.94
2023-03-05T18:31:39.912Z,101650.44
2023-03-05T18:34:07.788Z,101660.09
2023-03-05T18:36:35.703Z,101652.50
2023-03-05T18:39:04.157Z,101648.25
2023-03-05T18:41:33.710Z,101653.56
2023-03-05T18:44:01.932Z,101656.56
2023-03-05T18:46:29.799Z,101661.84
2023-03-05T18:48:57.758Z,101661.00
2023-03-05T18:51:25.662Z,101672.44
2023-03-05T18:53:55.122Z,101661.22
2023-03-05T18:56:23.183Z,101661.00
2023-03-05T18:58:52.514Z,101653.06
2023-03-05T19:01:20.894Z,101659.06
2023-03-05T19:03:49.020Z,101652.09
2023-03-05T19:06:17.721Z,101658.22
2023-03-05T19:08:45.754Z,101644.38
2023-03-05T19:11:17.379Z,101647.03
2023-03-05T19:13:49.090Z,101652.09
2023-03-05T19:16:20.838Z,101638.97
2023-03-05T19:18:59.784Z,101642.34
2023-03-05T19:21:27.757Z,101637.69
2023-03-05T19:23:55.644Z,101636.72
2023-03-05T19:26:23.640Z,101629.75
2023-03-05T19:28:51.577Z,101632.59
2023-03-05T19:31:20.942Z,101631.91
2023-03-05T19:33:49.043Z,101626.25
2023-03-05T19:36:17.049Z,101624.47
2023-03-05T19:38:44.967Z,101626.88
2023-03-05T19:41:13.269Z,101616.72
2023-03-05T19:43:41.166Z,101630.25
2023-03-05T19:46:09.318Z,101625.91
2023-03-05T19:48:39.247Z,101626.88
2023-03-05T19:51:10.234Z,101625.19
2023-03-05T19:53:38.453Z,101627.84
2023-03-05T19:56:07.343Z,101623.50
2023-03-05T19:58:35.692Z,101613.88
2023-03-05T20:01:10.913Z,101616.63
2023-03-05T20:03:40.394Z,101603.75
2023-03-05T20:06:08.520Z,101610.59
2023-03-05T20:08:36.499Z,101609.53
2023-03-05T20:11:04.578Z,101605.94
2023-03-05T20:13:32.714Z,101602.56
2023-03-05T20:16:00.760Z,101601.72
2023-03-05T20:18:28.697Z,101593.66
2023-03-05T20:21:01.688Z,101598.94
2023-03-05T20:23:29.909Z,101593.91
2023-03-05T20:25:57.876Z,101590.16
2023-03-05T20:28:26.860Z,101589.13
2023-03-05T20:30:55.625Z,101573.69
2023-03-05T20:33:23.724Z,101579.94
2023-03-05T20:35:53.290Z,101572.75
2023-03-05T20:38:25.210Z,101572.97
2023-03-05T20:40:54.163Z,101573.81
2023-03-05T20:43:22.315Z,101577.06
2023-03-05T20:45:50.244Z,101566.47
2023-03-05T20:48:18.259Z,101561.91
2023-03-05T20:50:46.922Z,101560.97
2023-03-05T20:53:15.058Z,101553.50
2023-03-05T20:55:44.480Z,101561.63
2023-03-05T20:58:12.587Z,101565.50
2023-03-05T21:00:40.941Z,101572.28
2023-03-05T21:03:09.508Z,101569.63
2023-03-05T21:05:37.626Z,101565.19
2023-03-05T21:08:05.941Z,101567.00
2023-03-05T21:10:33.902Z,101561.69
2023-03-05T21:13:03.150Z,101562.66
2023-03-05T21:15:31.235Z,101563.59
2023-03-05T21:17:59.132Z,101556.41
2023-03-05T21:20:28.377Z,101540.84
2023-03-05T21:22:56.588Z,101553.25
2023-03-05T21:25:26.018Z,101556.63
2023-03-05T21:27:57.324Z,101555.66
2023-03-05T21:30:28.409Z,101544.97
2023-03-05T21:32:58.017Z,101543.03
2023-03-05T21:35:25.966Z,101548.97
2023-03-05T21:37:54.026Z,101549.19
2023-03-05T21:40:22.190Z,101538.59
2023-03-05T21:42:50.151Z,101538.59
2023-03-05T21:45:19.508Z,101535.25
2023-03-05T21:47:49.227Z,101531.88
2023-03-05T21:50:17.540Z,101521.28
2023-03-05T21:52:45.412Z,101533.09
2023-03-05T21:55:13.798Z,101535.72
2023-03-05T21:57:41.655Z,101532.97
2023-03-05T22:00:11.142Z,101534.78
2023-03-05T22:02:41.937Z,101531.19
2023-03-05T22:05:13.709Z,101531.28
2023-03-05T22:07:41.619Z,101526.09
2023-03-05T22:10:11.385Z,101517.44
2023-03-05T22:12:51.808Z,101523.72
2023-03-05T22:15:20.313Z,101524.41
2023-03-05T22:17:48.226Z,101512.38
2023-03-05T22:20:18.395Z,101526.47
2023-03-05T22:22:46.393Z,101522.88
2023-03-05T22:25:15.004Z,101517.91
2023-03-05T22:27:42.993Z,101522.34
2023-03-05T22:30:12.115Z,101524.78
2023-03-05T22:32:40.162Z,101512.38
2023-03-05T22:35:11.267Z,101517.44
2023-03-05T22:37:41.439Z,101508.78
2023-03-05T22:40:10.743Z,101510.47
2023-03-05T22:42:38.683Z,101504.19
2023-03-05T22:45:07.652Z,101506.84
2023-03-05T22:47:35.796Z,101506.63
2023-03-05T22:50:03.958Z,101495.94
2023-03-05T22:52:32.085Z,101497.75
2023-03-05T22:55:03.061Z,101489.06
2023-03-05T22:57:31.119Z,101495.41
2023-03-05T22:59:59.214Z,101487.63
2023-03-05T23:02:27.226Z,101486.66
2023-03-05T23:04:57.661Z,101488.31
2023-03-05T23:07:26.683Z,101484.03
2023-03-05T23:09:55.598Z,101481.38
2023-03-05T23:12:25.547Z,101475.34
2023-03-05T23:14:53.527Z,101479.69
2023-03-05T23:17:21.430Z,101469.81
2023-03-05T23:19:49.343Z,101466.47
2023-03-05T23:22:17.238Z,101464.78
2023-03-05T23:24:45.175Z,101470.06
2023-03-05T23:27:14.600Z,101464.88
2023-03-05T23:29:58.736Z,101454.66
2023-03-05T23:32:29.104Z,101463.09
2023-03-05T23:34:57.119Z,101467.16
2023-03-05T23:37:25.034Z,101459.13
2023-03-05T23:39:52.983Z,101450.34
2023-03-05T23:42:20.999Z,101456.47
2023-03-05T23:44:50.263Z,101452.50
2023-03-05T23:47:18.217Z,101449.97
2023-03-05T23:49:46.110Z,101444.09
2023-03-05T23:52:14.289Z,101442.41
2023-03-05T23:54:42.281Z,101450.44
2023-03-05T23:57:10.486Z,101433.50
2023-03-05T23:59:38.697Z,101435.41
